createdAt,value
2022-10-31T00:00:10.840Z,1015.63
2022-10-31T00:01:10.792Z,1015.63
2022-10-31T00:02:10.746Z,1015.63
2022-10-31T00:03:10.701Z,1015.68
2022-10-31T00:04:10.662Z,1015.68
2022-10-31T00:05:10.622Z,1016.03
2022-10-31T00:06:10.580Z,1016.03
2022-10-31T00:07:10.556Z,1016.00
2022-10-31T00:08:10.531Z,1015.68
2022-10-31T00:09:10.465Z,1015.64
2022-10-31T00:10:10.498Z,1015.59
2022-10-31T00:11:10.386Z,1015.59
2022-10-31T00:12:10.344Z,1015.61
2022-10-31T00:13:10.352Z,1015.55
2022-10-31T00:14:10.262Z,1015.58
2022-10-31T00:15:10.287Z,1015.59
2022-10-31T00:16:10.238Z,1015.56
2022-10-31T00:17:10.182Z,1015.61
2022-10-31T00:18:10.114Z,1015.67
2022-10-31T00:19:10.084Z,1015.67
2022-10-31T00:20:10.044Z,1016.03
2022-10-31T00:21:09.989Z,1015.68
2022-10-31T00:22:09.947Z,1015.71
2022-10-31T00:23:09.915Z,1015.72
2022-10-31T00:24:09.868Z,1015.73
2022-10-31T00:25:09.827Z,1015.71
2022-10-31T00:26:09.802Z,1015.71
2022-10-31T00:27:09.750Z,1015.68
2022-10-31T00:28:09.752Z,1015.65
2022-10-31T00:29:09.685Z,1015.65
2022-10-31T00:30:09.630Z,1015.65
2022-10-31T00:31:09.591Z,1015.67
2022-10-31T00:32:09.553Z,1016.02
2022-10-31T00:33:09.522Z,1015.98
2022-10-31T00:34:09.477Z,1015.70
2022-10-31T00:35:09.457Z,1015.68
2022-10-31T00:36:09.393Z,1015.68
2022-10-31T00:37:09.367Z,1015.70
2022-10-31T00:38:09.314Z,1015.68
2022-10-31T00:39:09.280Z,1015.68
2022-10-31T00:40:09.236Z,1016.00
2022-10-31T00:41:09.194Z,1016.00
2022-10-31T00:42:09.156Z,1015.66
2022-10-31T00:43:09.189Z,1016.01
2022-10-31T00:44:09.085Z,1015.71
2022-10-31T00:45:09.035Z,1015.76
2022-10-31T00:46:08.999Z,1015.74
2022-10-31T00:47:08.960Z,1016.12
2022-10-31T00:48:08.921Z,1016.07
2022-10-31T00:49:08.895Z,1015.64
2022-10-31T00:50:08.842Z,1015.87
2022-10-31T00:51:08.801Z,1015.96
2022-10-31T00:52:08.763Z,1015.59
2022-10-31T00:53:08.721Z,1015.97
2022-10-31T00:54:08.688Z,1016.01
2022-10-31T00:55:08.658Z,1015.69
2022-10-31T00:56:08.604Z,1015.68
2022-10-31T00:57:08.567Z,1016.02
2022-10-31T00:58:08.562Z,1015.75
2022-10-31T00:59:08.492Z,1015.83
2022-10-31T01:00:08.443Z,1015.89
2022-10-31T01:01:08.497Z,1015.91
2022-10-31T01:02:08.494Z,1015.94
2022-10-31T01:03:08.327Z,1015.90
2022-10-31T01:04:08.309Z,1015.89
2022-10-31T01:05:08.246Z,1015.92
2022-10-31T01:06:08.224Z,1015.99
2022-10-31T01:07:08.170Z,1016.38
2022-10-31T01:08:08.127Z,1016.00
2022-10-31T01:09:08.087Z,1015.99
2022-10-31T01:10:08.076Z,1015.96
2022-10-31T01:11:08.023Z,1015.92
2022-10-31T01:12:07.984Z,1016.23
2022-10-31T01:13:07.930Z,1015.85
2022-10-31T01:14:07.890Z,1015.86
2022-10-31T01:15:07.849Z,1015.81
2022-10-31T01:16:07.819Z,1015.79
2022-10-31T01:17:07.791Z,1016.06
2022-10-31T01:18:07.750Z,1015.83
2022-10-31T01:19:07.694Z,1016.02
2022-10-31T01:20:07.656Z,1015.86
2022-10-31T01:21:07.622Z,1016.23
2022-10-31T01:22:07.577Z,1015.89
2022-10-31T01:23:07.534Z,1015.91
2022-10-31T01:24:07.522Z,1015.91
2022-10-31T01:25:07.465Z,1015.90
2022-10-31T01:26:07.420Z,1016.22
2022-10-31T01:27:07.381Z,1015.88
2022-10-31T01:28:07.342Z,1015.87
2022-10-31T01:29:07.316Z,1015.86
2022-10-31T01:30:07.265Z,1016.25
2022-10-31T01:31:07.218Z,1015.84
2022-10-31T01:32:07.217Z,1016.20
2022-10-31T01:33:07.143Z,1016.18
2022-10-31T01:34:07.117Z,1016.14
2022-10-31T01:35:07.066Z,1015.77
2022-10-31T01:36:07.032Z,1015.77
2022-10-31T01:37:06.987Z,1016.04
2022-10-31T01:38:06.949Z,1015.95
2022-10-31T01:39:06.919Z,1015.64
2022-10-31T01:40:06.864Z,1015.64
2022-10-31T01:41:06.827Z,1015.67
2022-10-31T01:42:06.801Z,1015.99
2022-10-31T01:43:06.749Z,1015.68
2022-10-31T01:44:06.723Z,1015.92
2022-10-31T01:45:06.666Z,1015.57
2022-10-31T01:46:06.673Z,1015.57
2022-10-31T01:47:06.591Z,1015.59
2022-10-31T01:48:06.553Z,1015.55
2022-10-31T01:49:06.529Z,1015.56
2022-10-31T01:50:06.470Z,1015.56
2022-10-31T01:51:06.431Z,1015.59
2022-10-31T01:52:06.393Z,1015.60
2022-10-31T01:53:06.356Z,1015.58
2022-10-31T01:54:06.313Z,1015.87
2022-10-31T01:55:06.288Z,1015.54
2022-10-31T01:56:06.231Z,1015.74
2022-10-31T01:57:06.193Z,1015.50
2022-10-31T01:58:06.205Z,1015.47
2022-10-31T01:59:06.117Z,1015.42
2022-10-31T02:00:06.078Z,1015.39
2022-10-31T02:01:08.048Z,1015.39
2022-10-31T02:02:06.110Z,1015.39
2022-10-31T02:03:05.958Z,1015.37
2022-10-31T02:04:05.920Z,1015.39
2022-10-31T02:05:05.875Z,1015.40
2022-10-31T02:06:05.838Z,1015.53
2022-10-31T02:07:05.819Z,1015.76
2022-10-31T02:08:05.769Z,1015.41
2022-10-31T02:09:05.724Z,1015.43
2022-10-31T02:10:05.685Z,1015.45
2022-10-31T02:11:05.662Z,1015.44
2022-10-31T02:12:05.598Z,1015.43
2022-10-31T02:13:05.576Z,1015.46
2022-10-31T02:14:05.528Z,1015.41
2022-10-31T02:15:05.497Z,1015.41
2022-10-31T02:16:05.509Z,1015.37
2022-10-31T02:17:05.407Z,1015.40
2022-10-31T02:18:05.386Z,1015.38
2022-10-31T02:19:05.317Z,1015.47
2022-10-31T02:20:05.286Z,1015.42
2022-10-31T02:21:05.245Z,1015.44
2022-10-31T02:22:05.198Z,1015.48
2022-10-31T02:23:05.168Z,1015.44
2022-10-31T02:24:05.119Z,1015.72
2022-10-31T02:25:05.081Z,1015.82
2022-10-31T02:26:05.055Z,1015.47
2022-10-31T02:27:04.997Z,1015.45
2022-10-31T02:28:05.238Z,1015.44
2022-10-31T02:29:04.917Z,1015.44
2022-10-31T02:30:04.885Z,1015.48
2022-10-31T02:31:04.837Z,1015.81
2022-10-31T02:32:04.799Z,1015.67
2022-10-31T02:33:04.776Z,1015.45
2022-10-31T02:34:04.741Z,1015.44
2022-10-31T02:35:04.681Z,1015.40
2022-10-31T02:36:04.681Z,1015.46
2022-10-31T02:37:04.602Z,1015.47
2022-10-31T02:38:04.567Z,1015.48
2022-10-31T02:39:04.534Z,1015.62
2022-10-31T02:40:04.479Z,1015.52
2022-10-31T02:41:04.439Z,1015.49
2022-10-31T02:42:04.402Z,1015.80
2022-10-31T02:43:04.728Z,1015.86
2022-10-31T02:44:04.329Z,1015.86
2022-10-31T02:45:04.295Z,1015.53
2022-10-31T02:46:04.240Z,1015.58
2022-10-31T02:47:04.202Z,1015.56
2022-10-31T02:48:04.162Z,1015.75
2022-10-31T02:49:04.123Z,1015.75
2022-10-31T02:50:04.105Z,1015.71
2022-10-31T02:51:04.042Z,1016.12
2022-10-31T02:52:04.001Z,1015.78
2022-10-31T02:53:03.964Z,1016.06
2022-10-31T02:54:03.921Z,1016.05
2022-10-31T02:55:03.882Z,1015.68
2022-10-31T02:56:03.861Z,1015.63
2022-10-31T02:57:03.817Z,1015.84
2022-10-31T02:58:04.141Z,1015.82
2022-10-31T02:59:03.728Z,1015.45
2022-10-31T03:00:03.683Z,1015.80
2022-10-31T03:01:03.772Z,1015.51
2022-10-31T03:02:03.837Z,1015.53
2022-10-31T03:03:03.747Z,1015.52
2022-10-31T03:04:03.522Z,1015.85
2022-10-31T03:05:03.481Z,1015.84
2022-10-31T03:06:03.445Z,1015.54
2022-10-31T03:07:03.400Z,1015.56
2022-10-31T03:08:03.364Z,1015.92
2022-10-31T03:09:03.356Z,1015.90
2022-10-31T03:10:12.798Z,1015.88
2022-10-31T03:11:03.243Z,1015.58
2022-10-31T03:12:03.216Z,1015.56
2022-10-31T03:13:03.337Z,1015.56
2022-10-31T03:14:03.127Z,1015.90
2022-10-31T03:15:03.098Z,1015.94
2022-10-31T03:16:03.047Z,1015.96
2022-10-31T03:17:03.006Z,1015.78
2022-10-31T03:18:03.497Z,1015.62
2022-10-31T03:19:02.924Z,1015.97
2022-10-31T03:20:02.889Z,1015.65
2022-10-31T03:21:02.860Z,1015.97
2022-10-31T03:22:02.809Z,1015.62
2022-10-31T03:23:02.769Z,1015.65
2022-10-31T03:24:02.730Z,1015.96
2022-10-31T03:25:02.689Z,1015.59
2022-10-31T03:26:02.650Z,1015.58
2022-10-31T03:27:02.641Z,1015.88
2022-10-31T03:28:03.040Z,1015.57
2022-10-31T03:29:02.530Z,1015.90
2022-10-31T03:30:02.495Z,1015.87
2022-10-31T03:31:04.847Z,1015.48
2022-10-31T03:32:02.412Z,1015.49
2022-10-31T03:33:02.573Z,1015.84
2022-10-31T03:34:02.340Z,1015.50
2022-10-31T03:35:02.293Z,1015.82
2022-10-31T03:36:02.254Z,1015.74
2022-10-31T03:37:02.209Z,1015.39
2022-10-31T03:38:06.868Z,1015.74
2022-10-31T03:39:02.147Z,1015.43
2022-10-31T03:40:02.096Z,1015.41
2022-10-31T03:41:02.058Z,1015.45
2022-10-31T03:42:02.018Z,1015.49
2022-10-31T03:43:02.365Z,1015.50
2022-10-31T03:44:01.953Z,1015.49
2022-10-31T03:45:01.923Z,1015.47
2022-10-31T03:46:01.870Z,1015.45
2022-10-31T03:47:01.823Z,1015.50
2022-10-31T03:48:02.224Z,1015.46
2022-10-31T03:49:01.739Z,1015.45
2022-10-31T03:50:01.711Z,1015.42
2022-10-31T03:51:01.675Z,1015.36
2022-10-31T03:52:01.630Z,1015.36
2022-10-31T03:53:01.585Z,1015.73
2022-10-31T03:54:01.542Z,1015.38
2022-10-31T03:55:01.500Z,1015.41
2022-10-31T03:56:01.476Z,1015.44
2022-10-31T03:57:01.427Z,1015.45
2022-10-31T03:58:01.896Z,1015.39
2022-10-31T03:59:01.342Z,1015.40
2022-10-31T04:00:01.301Z,1015.37
2022-10-31T04:01:01.332Z,1015.42
2022-10-31T04:02:01.385Z,1015.43
2022-10-31T04:03:01.447Z,1015.46
2022-10-31T04:04:01.146Z,1015.47
2022-10-31T04:05:01.104Z,1015.79
2022-10-31T04:06:01.084Z,1015.48
2022-10-31T04:07:01.038Z,1015.49
2022-10-31T04:08:00.985Z,1015.50
2022-10-31T04:09:00.945Z,1015.44
2022-10-31T04:10:00.907Z,1015.40
2022-10-31T04:11:00.863Z,1015.72
2022-10-31T04:12:00.831Z,1015.74
2022-10-31T04:13:01.302Z,1015.44
2022-10-31T04:14:00.753Z,1015.43
2022-10-31T04:15:00.710Z,1015.78
2022-10-31T04:16:00.664Z,1015.42
2022-10-31T04:17:00.630Z,1015.39
2022-10-31T04:18:00.993Z,1015.41
2022-10-31T04:19:00.554Z,1015.60
2022-10-31T04:20:00.509Z,1015.40
2022-10-31T04:21:00.465Z,1015.43
2022-10-31T04:22:00.428Z,1015.78
2022-10-31T04:23:00.395Z,1015.45
2022-10-31T04:24:00.349Z,1015.76
2022-10-31T04:25:00.306Z,1015.47
2022-10-31T04:26:00.266Z,1015.44
2022-10-31T04:27:00.229Z,1015.49
2022-10-31T04:28:00.633Z,1015.47
2022-10-31T04:29:00.161Z,1015.43
2022-10-31T04:30:00.112Z,1015.70
2022-10-31T04:31:00.068Z,1015.43
2022-10-31T04:32:00.028Z,1015.36
2022-10-31T04:33:00.191Z,1015.33
2022-10-31T04:33:59.961Z,1015.31
2022-10-31T04:34:59.920Z,1015.29
2022-10-31T04:35:59.866Z,1015.32
2022-10-31T04:36:59.825Z,1015.30
2022-10-31T04:37:59.789Z,1015.70
2022-10-31T04:38:59.746Z,1015.36
2022-10-31T04:39:59.718Z,1015.37
2022-10-31T04:40:59.674Z,1015.36
2022-10-31T04:41:59.629Z,1015.35
2022-10-31T04:42:59.902Z,1015.32
2022-10-31T04:43:59.546Z,1015.30
2022-10-31T04:44:59.506Z,1015.28
2022-10-31T04:45:59.485Z,1015.32
2022-10-31T04:46:59.426Z,1015.32
2022-10-31T04:47:59.709Z,1015.30
2022-10-31T04:48:59.346Z,1015.34
2022-10-31T04:49:59.309Z,1015.32
2022-10-31T04:50:59.264Z,1015.27
2022-10-31T04:51:59.234Z,1015.31
2022-10-31T04:52:59.185Z,1015.25
2022-10-31T04:53:59.148Z,1015.36
2022-10-31T04:54:59.105Z,1015.26
2022-10-31T04:55:59.065Z,1015.25
2022-10-31T04:56:59.063Z,1015.26
2022-10-31T04:57:59.403Z,1015.28
2022-10-31T04:58:58.945Z,1015.30
2022-10-31T04:59:58.914Z,1015.28
2022-10-31T05:00:58.910Z,1015.60
2022-10-31T05:01:58.963Z,1015.59
2022-10-31T05:02:59.169Z,1015.25
2022-10-31T05:03:58.746Z,1015.28
2022-10-31T05:04:58.705Z,1015.20
2022-10-31T05:05:58.667Z,1015.18
2022-10-31T05:06:58.640Z,1015.17
2022-10-31T05:07:58.593Z,1015.11
2022-10-31T05:08:58.547Z,1015.07
2022-10-31T05:09:58.508Z,1015.07
2022-10-31T05:11:03.232Z,1015.03
2022-10-31T05:11:58.432Z,1015.03
2022-10-31T05:12:58.877Z,1015.03
2022-10-31T05:13:58.350Z,1015.03
2022-10-31T05:14:58.304Z,1015.34
2022-10-31T05:15:58.273Z,1015.04
2022-10-31T05:16:58.228Z,1015.05
2022-10-31T05:17:58.775Z,1015.00
2022-10-31T05:18:58.154Z,1014.98
2022-10-31T05:19:58.106Z,1015.00
2022-10-31T05:20:58.063Z,1014.97
2022-10-31T05:21:58.025Z,1014.96
2022-10-31T05:22:57.985Z,1015.00
2022-10-31T05:23:57.945Z,1014.97
2022-10-31T05:24:57.913Z,1014.98
2022-10-31T05:25:57.864Z,1014.98
2022-10-31T05:26:57.824Z,1014.99
2022-10-31T05:27:58.100Z,1015.01
2022-10-31T05:28:57.743Z,1015.01
2022-10-31T05:29:57.706Z,1015.04
2022-10-31T05:30:57.685Z,1015.28
2022-10-31T05:31:57.623Z,1015.40
2022-10-31T05:32:57.830Z,1015.11
2022-10-31T05:33:57.549Z,1015.06
2022-10-31T05:34:57.502Z,1015.06
2022-10-31T05:35:57.461Z,1015.36
2022-10-31T05:36:57.436Z,1015.06
2022-10-31T05:37:57.383Z,1015.06
2022-10-31T05:38:57.340Z,1015.06
2022-10-31T05:39:57.305Z,1015.02
2022-10-31T05:40:57.262Z,1015.38
2022-10-31T05:41:57.227Z,1015.37
2022-10-31T05:42:57.448Z,1015.03
2022-10-31T05:43:57.142Z,1015.37
2022-10-31T05:44:57.099Z,1015.00
2022-10-31T05:45:57.062Z,1015.33
2022-10-31T05:46:57.021Z,1014.99
2022-10-31T05:47:57.348Z,1015.01
2022-10-31T05:49:00.197Z,1015.00
2022-10-31T05:49:56.913Z,1014.98
2022-10-31T05:50:56.879Z,1014.94
2022-10-31T05:51:56.834Z,1014.92
2022-10-31T05:52:56.792Z,1015.03
2022-10-31T05:53:56.741Z,1015.27
2022-10-31T05:54:56.710Z,1015.31
2022-10-31T05:55:56.663Z,1014.92
2022-10-31T05:56:56.620Z,1015.02
2022-10-31T05:57:56.687Z,1015.24
2022-10-31T05:58:56.543Z,1015.26
2022-10-31T05:59:56.502Z,1014.90
2022-10-31T06:00:56.470Z,1014.91
2022-10-31T06:01:56.508Z,1014.93
2022-10-31T06:02:56.465Z,1014.95
2022-10-31T06:03:56.339Z,1014.95
2022-10-31T06:04:56.371Z,1014.97
2022-10-31T06:05:56.257Z,1014.99
2022-10-31T06:06:56.229Z,1015.33
2022-10-31T06:07:56.179Z,1015.34
2022-10-31T06:08:56.137Z,1015.30
2022-10-31T06:09:56.097Z,1015.30
2022-10-31T06:10:56.057Z,1015.01
2022-10-31T06:11:56.032Z,1014.96
2022-10-31T06:12:55.990Z,1014.99
2022-10-31T06:13:55.941Z,1014.99
2022-10-31T06:14:55.896Z,1015.00
2022-10-31T06:15:55.859Z,1015.12
2022-10-31T06:16:55.817Z,1015.01
2022-10-31T06:17:55.790Z,1015.01
2022-10-31T06:18:55.748Z,1015.07
2022-10-31T06:19:55.702Z,1015.31
2022-10-31T06:20:55.657Z,1015.06
2022-10-31T06:21:55.622Z,1014.97
2022-10-31T06:22:55.575Z,1014.98
2022-10-31T06:23:55.538Z,1015.01
2022-10-31T06:24:55.508Z,1014.95
2022-10-31T06:25:55.457Z,1014.96
2022-10-31T06:26:55.417Z,1014.92
2022-10-31T06:27:55.371Z,1014.88
2022-10-31T06:28:57.725Z,1015.22
2022-10-31T06:29:55.307Z,1014.89
2022-10-31T06:30:55.261Z,1014.95
2022-10-31T06:31:55.217Z,1014.92
2022-10-31T06:32:55.175Z,1015.27
2022-10-31T06:33:55.135Z,1014.92
2022-10-31T06:34:55.094Z,1014.99
2022-10-31T06:35:55.070Z,1015.06
2022-10-31T06:36:55.016Z,1015.05
2022-10-31T06:37:54.980Z,1015.36
2022-10-31T06:38:54.950Z,1015.02
2022-10-31T06:39:54.895Z,1015.01
2022-10-31T06:40:54.854Z,1015.01
2022-10-31T06:41:54.831Z,1015.04
2022-10-31T06:42:54.773Z,1015.00
2022-10-31T06:43:54.733Z,1015.32
2022-10-31T06:44:54.695Z,1015.03
2022-10-31T06:45:54.651Z,1015.03
2022-10-31T06:46:54.611Z,1015.07
2022-10-31T06:48:16.024Z,1015.38
2022-10-31T06:48:54.533Z,1015.05
2022-10-31T06:49:54.495Z,1015.39
2022-10-31T06:50:59.384Z,1015.37
2022-10-31T06:51:54.413Z,1015.02
2022-10-31T06:52:54.384Z,1015.35
2022-10-31T06:53:54.336Z,1015.05
2022-10-31T06:54:54.292Z,1015.06
2022-10-31T06:55:54.253Z,1015.11
2022-10-31T06:56:54.211Z,1015.07
2022-10-31T06:57:57.611Z,1015.43
2022-10-31T06:58:54.132Z,1015.08
2022-10-31T06:59:54.091Z,1015.44
2022-10-31T07:00:54.121Z,1015.08
2022-10-31T07:01:54.152Z,1015.10
2022-10-31T07:02:53.982Z,1015.03
2022-10-31T07:03:53.932Z,1015.01
2022-10-31T07:04:53.893Z,1015.01
2022-10-31T07:05:53.855Z,1015.07
2022-10-31T07:06:53.817Z,1015.00
2022-10-31T07:07:53.785Z,1015.00
2022-10-31T07:08:53.735Z,1015.03
2022-10-31T07:09:53.696Z,1015.35
2022-10-31T07:10:53.654Z,1015.39
2022-10-31T07:11:53.612Z,1015.06
2022-10-31T07:12:53.575Z,1015.03
2022-10-31T07:13:53.542Z,1015.11
2022-10-31T07:14:53.498Z,1015.43
2022-10-31T07:15:53.455Z,1015.11
2022-10-31T07:16:53.414Z,1015.13
2022-10-31T07:17:53.375Z,1015.12
2022-10-31T07:18:53.350Z,1015.12
2022-10-31T07:19:53.295Z,1015.08
2022-10-31T07:20:53.256Z,1015.24
2022-10-31T07:21:53.215Z,1015.15
2022-10-31T07:22:53.193Z,1015.39
2022-10-31T07:23:53.137Z,1015.13
2022-10-31T07:24:53.112Z,1015.50
2022-10-31T07:25:53.058Z,1015.20
2022-10-31T07:26:53.077Z,1015.18
2022-10-31T07:27:52.978Z,1015.19
2022-10-31T07:28:52.940Z,1015.18
2022-10-31T07:29:52.898Z,1015.15
2022-10-31T07:30:52.874Z,1015.21
2022-10-31T07:31:52.820Z,1015.22
2022-10-31T07:32:52.792Z,1015.51
2022-10-31T07:33:52.741Z,1015.15
2022-10-31T07:34:52.702Z,1015.48
2022-10-31T07:35:52.671Z,1015.46
2022-10-31T07:36:52.653Z,1015.47
2022-10-31T07:37:52.582Z,1015.10
2022-10-31T07:38:52.546Z,1015.09
2022-10-31T07:39:52.504Z,1015.11
2022-10-31T07:40:52.466Z,1015.34
2022-10-31T07:41:52.423Z,1015.11
2022-10-31T07:42:52.397Z,1015.15
2022-10-31T07:44:55.233Z,1015.19
2022-10-31T07:45:52.267Z,1015.21
2022-10-31T07:46:52.232Z,1015.24
2022-10-31T07:47:52.188Z,1015.32
2022-10-31T07:48:52.165Z,1015.62
2022-10-31T07:49:52.111Z,1015.62
2022-10-31T07:50:52.072Z,1015.35
2022-10-31T07:51:52.032Z,1015.64
2022-10-31T07:52:51.992Z,1015.69
2022-10-31T07:53:51.954Z,1015.35
2022-10-31T07:54:51.945Z,1015.75
2022-10-31T07:55:51.873Z,1015.44
2022-10-31T07:56:51.837Z,1015.46
2022-10-31T07:57:51.797Z,1015.46
2022-10-31T07:58:51.754Z,1015.43
2022-10-31T07:59:51.718Z,1015.44
2022-10-31T08:00:51.898Z,1015.46
2022-10-31T08:01:51.646Z,1015.50
2022-10-31T08:02:51.601Z,1015.50
2022-10-31T08:03:51.560Z,1015.52
2022-10-31T08:04:51.531Z,1015.48
2022-10-31T08:05:51.483Z,1015.86
2022-10-31T08:06:51.456Z,1015.75
2022-10-31T08:07:51.405Z,1015.46
2022-10-31T08:08:51.410Z,1015.47
2022-10-31T08:09:51.355Z,1015.46
2022-10-31T08:10:51.337Z,1015.45
2022-10-31T08:11:51.340Z,1015.44
2022-10-31T08:12:51.222Z,1015.42
2022-10-31T08:13:51.175Z,1015.58
2022-10-31T08:14:51.829Z,1015.42
2022-10-31T08:15:51.103Z,1015.41
2022-10-31T08:16:51.060Z,1015.42
2022-10-31T08:17:51.039Z,1015.72
2022-10-31T08:18:50.983Z,1015.36
2022-10-31T08:19:50.955Z,1015.77
2022-10-31T08:20:50.907Z,1015.69
2022-10-31T08:21:50.868Z,1015.41
2022-10-31T08:22:50.834Z,1015.42
2022-10-31T08:23:50.793Z,1015.39
2022-10-31T08:24:50.770Z,1015.43
2022-10-31T08:25:50.732Z,1015.43
2022-10-31T08:26:50.677Z,1015.76
2022-10-31T08:27:50.641Z,1015.75
2022-10-31T08:28:50.606Z,1015.37
2022-10-31T08:29:50.566Z,1015.66
2022-10-31T08:30:50.544Z,1015.66
2022-10-31T08:31:50.491Z,1015.71
2022-10-31T08:32:50.456Z,1015.72
2022-10-31T08:33:50.421Z,1015.75
2022-10-31T08:34:50.382Z,1015.78
2022-10-31T08:35:50.345Z,1015.51
2022-10-31T08:36:50.331Z,1015.49
2022-10-31T08:37:50.276Z,1015.49
2022-10-31T08:38:50.248Z,1015.60
2022-10-31T08:39:50.199Z,1015.80
2022-10-31T08:40:50.161Z,1015.82
2022-10-31T08:41:50.124Z,1015.80
2022-10-31T08:42:50.088Z,1015.46
2022-10-31T08:43:50.055Z,1015.82
2022-10-31T08:44:50.043Z,1015.44
2022-10-31T08:45:50.002Z,1015.46
2022-10-31T08:46:49.947Z,1015.42
2022-10-31T08:47:49.908Z,1015.39
2022-10-31T08:48:49.876Z,1015.35
2022-10-31T08:49:49.851Z,1015.37
2022-10-31T08:50:49.799Z,1015.74
2022-10-31T08:51:49.764Z,1015.37
2022-10-31T08:53:04.808Z,1015.68
2022-10-31T08:53:49.696Z,1015.31
2022-10-31T08:54:49.657Z,1015.56
2022-10-31T08:55:49.640Z,1015.26
2022-10-31T08:56:49.586Z,1015.26
2022-10-31T08:57:49.551Z,1015.24
2022-10-31T08:58:49.518Z,1015.28
2022-10-31T08:59:49.479Z,1015.54
2022-10-31T09:00:49.481Z,1015.14
2022-10-31T09:01:49.519Z,1015.38
2022-10-31T09:02:49.376Z,1015.14
2022-10-31T09:03:49.345Z,1015.18
2022-10-31T09:04:49.301Z,1015.10
2022-10-31T09:05:49.338Z,1015.42
2022-10-31T09:07:49.208Z,1015.01
2022-10-31T09:08:49.177Z,1015.05
2022-10-31T09:09:49.127Z,1015.38
2022-10-31T09:10:56.145Z,1015.07
2022-10-31T09:11:49.053Z,1015.37
2022-10-31T09:12:49.018Z,1014.99
2022-10-31T09:13:48.986Z,1015.03
2022-10-31T09:14:48.974Z,1015.00
2022-10-31T09:15:48.911Z,1015.05
2022-10-31T09:16:48.875Z,1015.04
2022-10-31T09:17:48.834Z,1015.39
2022-10-31T09:18:48.814Z,1015.37
2022-10-31T09:19:48.769Z,1015.04
2022-10-31T09:20:48.732Z,1015.00
2022-10-31T09:21:48.880Z,1015.32
2022-10-31T09:22:48.659Z,1014.99
2022-10-31T09:23:48.632Z,1014.96
2022-10-31T09:24:48.601Z,1014.95
2022-10-31T09:25:50.675Z,1014.95
2022-10-31T09:26:48.517Z,1014.90
2022-10-31T09:27:48.479Z,1015.00
2022-10-31T09:28:48.455Z,1015.16
2022-10-31T09:29:48.409Z,1014.83
2022-10-31T09:30:48.371Z,1014.78
2022-10-31T09:31:48.340Z,1015.13
2022-10-31T09:32:48.300Z,1014.78
2022-10-31T09:33:48.263Z,1014.78
2022-10-31T09:34:48.238Z,1014.81
2022-10-31T09:35:48.194Z,1014.83
2022-10-31T09:36:48.157Z,1015.18
2022-10-31T09:37:48.119Z,1014.84
2022-10-31T09:38:48.090Z,1014.83
2022-10-31T09:39:48.044Z,1014.82
2022-10-31T09:40:48.010Z,1014.76
2022-10-31T09:41:50.769Z,1014.80
2022-10-31T09:42:47.937Z,1014.78
2022-10-31T09:43:47.899Z,1014.75
2022-10-31T09:44:47.875Z,1014.79
2022-10-31T09:45:47.846Z,1014.73
2022-10-31T09:46:47.791Z,1014.75
2022-10-31T09:47:47.752Z,1015.18
2022-10-31T09:48:47.727Z,1014.84
2022-10-31T09:49:47.764Z,1014.80
2022-10-31T09:50:47.658Z,1014.75
2022-10-31T09:51:52.697Z,1015.04
2022-10-31T09:52:47.575Z,1014.65
2022-10-31T09:53:47.537Z,1014.61
2022-10-31T09:54:47.503Z,1014.91
2022-10-31T09:55:47.466Z,1014.86
2022-10-31T09:56:47.438Z,1014.89
2022-10-31T09:57:47.396Z,1014.88
2022-10-31T09:58:47.360Z,1014.61
2022-10-31T09:59:47.320Z,1014.62
2022-10-31T10:00:47.349Z,1014.88
2022-10-31T10:01:47.300Z,1014.61
2022-10-31T10:02:47.219Z,1014.93
2022-10-31T10:03:47.177Z,1014.58
2022-10-31T10:04:47.144Z,1014.66
2022-10-31T10:05:47.108Z,1014.60
2022-10-31T10:06:47.074Z,1014.62
2022-10-31T10:07:47.053Z,1014.64
2022-10-31T10:08:47.002Z,1014.64
2022-10-31T10:09:46.965Z,1014.73
2022-10-31T10:10:46.930Z,1015.03
2022-10-31T10:11:46.905Z,1014.61
2022-10-31T10:12:46.860Z,1014.64
2022-10-31T10:13:46.823Z,1014.58
2022-10-31T10:14:46.792Z,1014.57
2022-10-31T10:15:46.753Z,1014.93
2022-10-31T10:16:46.718Z,1014.51
2022-10-31T10:17:46.694Z,1014.49
2022-10-31T10:18:46.653Z,1014.86
2022-10-31T10:19:46.613Z,1014.48
2022-10-31T10:20:46.579Z,1014.67
2022-10-31T10:21:46.549Z,1014.51
2022-10-31T10:22:46.508Z,1014.83
2022-10-31T10:23:46.486Z,1014.46
2022-10-31T10:24:46.440Z,1014.76
2022-10-31T10:25:46.410Z,1014.70
2022-10-31T10:26:46.370Z,1014.29
2022-10-31T10:27:46.336Z,1014.27
2022-10-31T10:28:46.350Z,1014.23
2022-10-31T10:29:46.292Z,1014.52
2022-10-31T10:30:46.233Z,1014.50
2022-10-31T10:31:46.194Z,1014.13
2022-10-31T10:32:50.908Z,1014.11
2022-10-31T10:33:46.322Z,1014.07
2022-10-31T10:34:46.109Z,1014.11
2022-10-31T10:35:46.054Z,1014.10
2022-10-31T10:36:46.022Z,1014.43
2022-10-31T10:37:45.985Z,1014.08
2022-10-31T10:38:46.258Z,1014.20
2022-10-31T10:39:45.919Z,1014.02
2022-10-31T10:40:45.892Z,1013.97
2022-10-31T10:41:45.850Z,1013.93
2022-10-31T10:42:45.811Z,1014.27
2022-10-31T10:44:45.742Z,1013.88
2022-10-31T10:45:45.715Z,1014.13
2022-10-31T10:46:45.671Z,1014.16
2022-10-31T10:47:45.639Z,1014.15
2022-10-31T10:48:45.598Z,1013.81
2022-10-31T10:49:45.567Z,1014.14
2022-10-31T10:50:45.527Z,1014.11
2022-10-31T10:52:49.458Z,1013.74
2022-10-31T10:53:45.422Z,1013.69
2022-10-31T10:54:45.384Z,1013.62
2022-10-31T10:55:45.348Z,1013.65
2022-10-31T10:56:45.325Z,1013.91
2022-10-31T10:57:45.278Z,1013.91
2022-10-31T10:58:45.240Z,1013.61
2022-10-31T10:59:45.235Z,1013.56
2022-10-31T11:00:45.197Z,1013.87
2022-10-31T11:01:45.134Z,1013.52
2022-10-31T11:02:48.049Z,1013.61
2022-10-31T11:03:45.073Z,1013.58
2022-10-31T11:04:45.024Z,1013.64
2022-10-31T11:05:44.992Z,1013.87
2022-10-31T11:06:44.952Z,1013.64
2022-10-31T11:07:44.918Z,1013.65
2022-10-31T11:08:44.882Z,1013.93
2022-10-31T11:09:44.859Z,1014.01
2022-10-31T11:10:44.810Z,1013.66
2022-10-31T11:11:44.781Z,1013.64
2022-10-31T11:12:44.742Z,1014.03
2022-10-31T11:13:44.704Z,1013.62
2022-10-31T11:14:44.682Z,1013.52
2022-10-31T11:15:44.643Z,1013.88
2022-10-31T11:16:44.600Z,1013.50
2022-10-31T11:17:44.562Z,1013.47
2022-10-31T11:18:44.524Z,1013.42
2022-10-31T11:19:44.502Z,1013.42
2022-10-31T11:20:44.467Z,1013.60
2022-10-31T11:21:45.848Z,1013.70
2022-10-31T11:22:44.384Z,1013.31
2022-10-31T11:23:44.348Z,1013.34
2022-10-31T11:24:44.316Z,1013.25
2022-10-31T11:25:44.279Z,1013.60
2022-10-31T11:26:44.252Z,1013.56
2022-10-31T11:27:44.216Z,1013.26
2022-10-31T11:28:44.171Z,1013.28
2022-10-31T11:29:44.137Z,1013.26
2022-10-31T11:30:44.127Z,1013.26
2022-10-31T11:31:44.073Z,1013.32
2022-10-31T11:32:44.045Z,1013.28
2022-10-31T11:33:43.996Z,1013.30
2022-10-31T11:34:43.960Z,1013.67
2022-10-31T11:35:43.940Z,1013.31
2022-10-31T11:36:43.890Z,1013.69
2022-10-31T11:37:43.860Z,1013.64
2022-10-31T11:38:43.831Z,1013.62
2022-10-31T11:39:43.785Z,1013.38
2022-10-31T11:40:43.750Z,1013.16
2022-10-31T11:41:43.713Z,1013.48
2022-10-31T11:42:43.682Z,1013.10
2022-10-31T11:43:43.648Z,1013.14
2022-10-31T11:44:43.632Z,1013.13
2022-10-31T11:45:43.578Z,1013.17
2022-10-31T11:46:43.539Z,1013.17
2022-10-31T11:47:43.505Z,1013.19
2022-10-31T11:48:43.474Z,1013.40
2022-10-31T11:49:43.441Z,1013.45
2022-10-31T11:50:43.412Z,1013.14
2022-10-31T11:51:43.365Z,1013.05
2022-10-31T11:52:43.383Z,1012.99
2022-10-31T11:53:43.314Z,1012.96
2022-10-31T11:54:43.282Z,1013.25
2022-10-31T11:55:43.226Z,1012.89
2022-10-31T11:56:43.192Z,1012.82
2022-10-31T11:57:43.153Z,1012.84
2022-10-31T11:58:43.127Z,1012.81
2022-10-31T11:59:43.087Z,1012.81
2022-10-31T12:00:43.045Z,1013.13
2022-10-31T12:01:45.139Z,1013.14
2022-10-31T12:02:43.053Z,1012.77
2022-10-31T12:03:42.942Z,1012.79
2022-10-31T12:04:42.918Z,1012.78
2022-10-31T12:05:42.872Z,1012.71
2022-10-31T12:06:42.838Z,1012.71
2022-10-31T12:07:42.815Z,1013.01
2022-10-31T12:08:42.767Z,1012.98